Keyport, Washington
Current Conditions -  °F | °C
As of 2:35 PM on Monday 26 Jan 2015 (Local Time) from KPWT Reporting Station
Clear Clear  
Wind Chill: 17°   Ceiling: Unl
Heat Index: 17°   Visibility: 10mi
Dew Point:   Wind: 10mph
Humidity: 59%   Direction: 190°S
Pressure: 29.93"   Gusts: NA
Location:  47.7°N, 122.62°W
Report Text: KPWT 262235Z AUTO 19009KT 10SM CLR 17/09 A2993 RMK AO1
Loading
Personal Weather Stations






























Interactive Weather Map New forecast layout! Learn more

10-Day Weather Forecast

Advertisements
Track Severe Weather on mobile